Time;durP1;ratioP1;P1;durP2;ratioP2;P2;SDS_P1;SDS_P2;PMS_P1;PMS_P2;Temp;Humidity;BMP_temperature;BMP_pressure;BME280_temperature;BME280_humidity;BME280_pressure;Samples;Min_cycle;Max_cycle;Signal;HPM_P1;HPM_P2
2021/05/19 00:01:47;;;;;;;;;;;22.80;40.00;;;;;;1621470;73;735;-72
2021/05/19 00:03:49;;;;;;;;;;;22.80;39.80;;;;;;1622712;73;845;-75
2021/05/19 00:05:51;;;;;;;;;;;22.80;40.20;;;;;;1624086;73;719;-72
2021/05/19 00:07:52;;;;;;;;;;;22.90;40.10;;;;;;1618257;73;1945;-72
2021/05/19 00:09:54;;;;;;;;;;;22.80;39.80;;;;;;1621674;73;660;-72
2021/05/19 00:11:56;;;;;;;;;;;22.80;39.20;;;;;;1627901;73;733;-73
2021/05/19 00:13:58;;;;;;;;;;;22.70;39.40;;;;;;1621597;73;778;-72
2021/05/19 00:16:00;;;;;;;;;;;22.70;39.30;;;;;;1625020;73;744;-74
2021/05/19 00:18:03;;;;;;;;;;;22.70;39.30;;;;;;1625743;73;737;-72
2021/05/19 00:20:06;;;;;;;;;;;22.80;38.70;;;;;;1623431;73;1141;-71
2021/05/19 00:22:08;;;;;;;;;;;22.70;38.50;;;;;;1623412;73;785;-71
2021/05/19 00:24:10;;;;;;;;;;;22.70;39.30;;;;;;1627140;73;730;-71
2021/05/19 00:26:11;;;;;;;;;;;22.70;38.60;;;;;;1622076;73;1162;-72
2021/05/19 00:28:13;;;;;;;;;;;22.70;38.90;;;;;;1628409;73;1947;-70
2021/05/19 00:30:19;;;;;;;;;;;22.80;38.80;;;;;;1625571;72;764;-69
2021/05/19 00:32:20;;;;;;;;;;;22.70;39.20;;;;;;1626144;73;1701;-68
2021/05/19 00:34:22;;;;;;;;;;;22.70;38.90;;;;;;1624118;73;779;-71
2021/05/19 00:36:24;;;;;;;;;;;22.70;38.70;;;;;;1624303;73;1118;-72
2021/05/19 00:38:26;;;;;;;;;;;22.80;38.60;;;;;;1620763;73;743;-72
2021/05/19 00:40:28;;;;;;;;;;;22.70;38.90;;;;;;1617036;73;903;-72
2021/05/19 00:42:30;;;;;;;;;;;22.70;39.00;;;;;;1616976;73;740;-73
2021/05/19 00:44:31;;;;;;;;;;;22.70;39.40;;;;;;1626181;73;849;-72
2021/05/19 00:46:34;;;;;;;;;;;22.70;39.30;;;;;;1628111;73;1114;-73
2021/05/19 00:48:36;;;;;;;;;;;22.70;39.40;;;;;;1622281;73;1935;-71
2021/05/19 00:50:38;;;;;;;;;;;22.70;39.20;;;;;;1626082;73;709;-72
2021/05/19 00:52:40;;;;;;;;;;;22.70;39.00;;;;;;1624934;73;783;-73
2021/05/19 00:54:42;;;;;;;;;;;22.70;38.50;;;;;;1627223;73;749;-72
2021/05/19 00:56:44;;;;;;;;;;;22.70;38.60;;;;;;1627326;73;1106;-73
2021/05/19 00:58:46;;;;;;;;;;;22.70;38.80;;;;;;1628609;73;815;-73
2021/05/19 01:00:48;;;;;;;;;;;22.70;38.50;;;;;;1626529;73;778;-73
2021/05/19 01:02:50;;;;;;;;;;;22.70;38.80;;;;;;1622017;72;748;-72
2021/05/19 01:04:52;;;;;;;;;;;22.70;38.90;;;;;;1622386;73;738;-71
2021/05/19 01:06:59;;;;;;;;;;;22.70;38.60;;;;;;1624524;73;1098;-74
2021/05/19 01:11:18;;;;;;;;;;;22.70;38.60;;;;;;1625673;73;724;-75
2021/05/19 01:13:20;;;;;;;;;;;22.70;38.60;;;;;;1621987;73;730;-75
2021/05/19 01:15:22;;;;;;;;;;;22.70;38.70;;;;;;1625581;72;767;-74
2021/05/19 01:17:24;;;;;;;;;;;22.70;38.70;;;;;;1625260;73;1141;-75
2021/05/19 01:19:26;;;;;;;;;;;22.60;38.90;;;;;;1627994;73;750;-75
2021/05/19 01:21:28;;;;;;;;;;;22.60;38.60;;;;;;1623938;72;760;-75
2021/05/19 01:23:32;;;;;;;;;;;22.50;38.40;;;;;;1623621;73;849;-75
2021/05/19 01:25:35;;;;;;;;;;;22.60;38.30;;;;;;1626946;73;775;-75
2021/05/19 01:27:37;;;;;;;;;;;22.60;38.50;;;;;;1623027;72;1940;-75
2021/05/19 01:29:39;;;;;;;;;;;22.60;38.30;;;;;;1625583;73;721;-73
2021/05/19 01:31:40;;;;;;;;;;;22.60;38.30;;;;;;1625544;73;716;-76
2021/05/19 01:33:42;;;;;;;;;;;22.70;37.80;;;;;;1628397;73;775;-75
2021/05/19 01:35:44;;;;;;;;;;;22.60;38.00;;;;;;1626021;73;771;-74
2021/05/19 01:37:46;;;;;;;;;;;22.70;37.90;;;;;;1627955;72;1106;-75
2021/05/19 01:39:48;;;;;;;;;;;22.60;37.70;;;;;;1626812;73;723;-75
2021/05/19 01:41:50;;;;;;;;;;;22.60;37.90;;;;;;1620222;72;794;-75
2021/05/19 01:43:52;;;;;;;;;;;22.60;37.20;;;;;;1625011;72;723;-75
2021/05/19 01:45:54;;;;;;;;;;;22.60;37.30;;;;;;1628474;72;715;-75
2021/05/19 01:47:56;;;;;;;;;;;22.60;38.00;;;;;;1623602;73;1945;-75
2021/05/19 01:49:58;;;;;;;;;;;22.60;37.50;;;;;;1628488;73;706;-76
2021/05/19 01:52:00;;;;;;;;;;;22.60;37.40;;;;;;1623946;72;736;-74
2021/05/19 01:54:02;;;;;;;;;;;22.70;38.60;;;;;;1621650;73;744;-75
2021/05/19 01:56:04;;;;;;;;;;;22.60;37.50;;;;;;1624002;73;1138;-73
2021/05/19 01:58:06;;;;;;;;;;;22.60;37.90;;;;;;1628871;73;699;-73
2021/05/19 02:00:08;;;;;;;;;;;22.60;37.50;;;;;;1623117;73;742;-73
2021/05/19 02:02:10;;;;;;;;;;;22.60;37.40;;;;;;1618393;73;736;-72
2021/05/19 02:04:13;;;;;;;;;;;22.60;37.70;;;;;;1624673;73;781;-72
2021/05/19 02:06:15;;;;;;;;;;;22.60;37.10;;;;;;1619578;73;1192;-73
2021/05/19 02:08:16;;;;;;;;;;;22.60;37.60;;;;;;1616844;73;1935;-73
2021/05/19 02:10:18;;;;;;;;;;;22.60;37.80;;;;;;1622242;73;773;-73
2021/05/19 02:12:20;;;;;;;;;;;22.60;37.90;;;;;;1626741;73;787;-72
2021/05/19 02:14:22;;;;;;;;;;;22.60;37.60;;;;;;1613943;73;785;-73
2021/05/19 02:18:28;;;;;;;;;;;22.60;37.60;;;;;;1556998;74;612;-68
2021/05/19 02:20:29;;;;;;;;;;;22.60;37.80;;;;;;1561590;74;745;-67
2021/05/19 02:22:31;;;;;;;;;;;22.60;37.70;;;;;;1561985;74;768;-70
2021/05/19 02:24:33;;;;;;;;;;;22.60;37.70;;;;;;1578492;74;762;-67
2021/05/19 02:26:35;;;;;;;;;;;22.60;37.60;;;;;;1565881;74;1204;-67
2021/05/19 02:28:37;;;;;;;;;;;22.60;37.80;;;;;;1539424;76;1944;-67
2021/05/19 02:30:39;;;;;;;;;;;22.50;37.70;;;;;;1529600;76;773;-67
2021/05/19 02:32:41;;;;;;;;;;;22.60;38.40;;;;;;1537000;75;837;-68
2021/05/19 02:34:42;;;;;;;;;;;22.60;38.10;;;;;;1540051;76;836;-67
2021/05/19 02:36:44;;;;;;;;;;;22.60;37.80;;;;;;1541059;76;1145;-68
2021/05/19 02:38:46;;;;;;;;;;;22.50;38.30;;;;;;1529338;76;671;-68
2021/05/19 02:40:48;;;;;;;;;;;22.60;38.00;;;;;;1531450;76;795;-66
2021/05/19 02:42:50;;;;;;;;;;;22.50;37.60;;;;;;1536213;76;700;-67
2021/05/19 02:44:52;;;;;;;;;;;22.50;38.10;;;;;;1552835;76;958;-65
2021/05/19 02:46:54;;;;;;;;;;;22.40;38.00;;;;;;1529384;76;1117;-67
2021/05/19 02:49:01;;;;;;;;;;;22.40;38.10;;;;;;1551853;76;1951;-67
2021/05/19 02:50:59;;;;;;;;;;;22.40;38.30;;;;;;1542143;76;1639;-69
2021/05/19 02:53:01;;;;;;;;;;;22.40;38.40;;;;;;1531693;76;805;-67
2021/05/19 02:55:03;;;;;;;;;;;22.40;38.30;;;;;;1547461;76;788;-71
2021/05/19 02:57:05;;;;;;;;;;;22.50;38.40;;;;;;1532184;76;1129;-67
2021/05/19 02:59:07;;;;;;;;;;;22.50;38.40;;;;;;1545508;76;728;-66
2021/05/19 03:01:09;;;;;;;;;;;22.40;38.20;;;;;;1545378;76;692;-67
2021/05/19 03:03:11;;;;;;;;;;;22.40;38.60;;;;;;1524468;76;774;-67
2021/05/19 03:05:13;;;;;;;;;;;22.40;38.40;;;;;;1534520;76;818;-67
2021/05/19 03:07:14;;;;;;;;;;;22.40;38.50;;;;;;1540847;76;1168;-67
2021/05/19 03:09:16;;;;;;;;;;;22.40;38.10;;;;;;1543262;76;1944;-68
2021/05/19 03:11:18;;;;;;;;;;;22.40;38.10;;;;;;1537754;76;793;-69
2021/05/19 03:13:20;;;;;;;;;;;22.40;38.10;;;;;;1531093;76;810;-66
2021/05/19 03:15:23;;;;;;;;;;;22.40;38.00;;;;;;1532407;76;789;-67
2021/05/19 03:17:25;;;;;;;;;;;22.40;37.90;;;;;;1538416;76;1164;-68
2021/05/19 03:19:27;;;;;;;;;;;22.50;38.20;;;;;;1547750;76;798;-67
2021/05/19 03:21:28;;;;;;;;;;;22.40;38.10;;;;;;1536546;76;753;-67
2021/05/19 03:23:30;;;;;;;;;;;22.50;38.20;;;;;;1544807;75;867;-67
2021/05/19 03:25:32;;;;;;;;;;;22.50;38.50;;;;;;1522787;76;784;-66
2021/05/19 03:27:34;;;;;;;;;;;22.50;38.40;;;;;;1536602;76;1154;-69
2021/05/19 03:29:36;;;;;;;;;;;22.50;38.10;;;;;;1534912;76;1962;-67
2021/05/19 03:31:38;;;;;;;;;;;22.50;38.30;;;;;;1528362;76;706;-66
2021/05/19 03:33:40;;;;;;;;;;;22.50;38.50;;;;;;1523188;76;756;-68
2021/05/19 03:35:42;;;;;;;;;;;22.50;38.60;;;;;;1521031;76;814;-68
2021/05/19 03:37:43;;;;;;;;;;;22.50;38.80;;;;;;1525632;76;1142;-64
2021/05/19 03:39:45;;;;;;;;;;;22.50;38.90;;;;;;1532490;76;742;-66
2021/05/19 03:41:47;;;;;;;;;;;22.50;39.20;;;;;;1527618;76;793;-66
2021/05/19 03:43:49;;;;;;;;;;;22.50;39.20;;;;;;1531023;76;723;-66
2021/05/19 03:45:51;;;;;;;;;;;22.50;39.20;;;;;;1532501;76;776;-66
2021/05/19 03:47:53;;;;;;;;;;;22.50;39.40;;;;;;1525188;76;1125;-65
2021/05/19 03:49:55;;;;;;;;;;;22.60;39.40;;;;;;1522376;76;1911;-66
2021/05/19 03:51:57;;;;;;;;;;;22.50;39.40;;;;;;1528280;76;717;-67
2021/05/19 03:53:59;;;;;;;;;;;22.50;39.00;;;;;;1534702;76;798;-66
2021/05/19 03:56:01;;;;;;;;;;;22.50;39.30;;;;;;1538372;76;747;-64
2021/05/19 03:58:03;;;;;;;;;;;22.50;39.50;;;;;;1529761;76;1151;-65
2021/05/19 04:00:05;;;;;;;;;;;22.60;39.70;;;;;;1528358;76;829;-64
2021/05/19 04:02:07;;;;;;;;;;;22.60;39.60;;;;;;1530894;76;727;-67
2021/05/19 04:04:09;;;;;;;;;;;22.50;39.70;;;;;;1528090;76;738;-65
2021/05/19 04:06:12;;;;;;;;;;;22.50;39.70;;;;;;1533338;76;802;-66
2021/05/19 04:08:14;;;;;;;;;;;22.50;39.70;;;;;;1532449;76;1128;-66
2021/05/19 04:10:15;;;;;;;;;;;22.50;39.70;;;;;;1532603;76;1937;-63
2021/05/19 04:12:17;;;;;;;;;;;22.60;39.80;;;;;;1526120;76;766;-64
2021/05/19 04:14:19;;;;;;;;;;;22.50;39.70;;;;;;1530672;76;894;-65
2021/05/19 04:16:21;;;;;;;;;;;22.50;39.80;;;;;;1543494;75;774;-64
2021/05/19 04:18:23;;;;;;;;;;;22.50;39.70;;;;;;1522727;76;818;-66
2021/05/19 04:20:25;;;;;;;;;;;22.50;39.70;;;;;;1538340;75;771;-65
2021/05/19 04:22:27;;;;;;;;;;;22.50;39.70;;;;;;1513029;76;790;-66
2021/05/19 04:24:29;;;;;;;;;;;22.50;39.70;;;;;;1516249;76;749;-66
2021/05/19 04:26:30;;;;;;;;;;;22.50;39.90;;;;;;1544174;75;1142;-65
2021/05/19 04:28:32;;;;;;;;;;;22.50;39.80;;;;;;1526368;76;757;-66
2021/05/19 04:30:34;;;;;;;;;;;22.50;39.80;;;;;;1523880;76;1946;-65
2021/05/19 04:32:36;;;;;;;;;;;22.50;39.80;;;;;;1545075;75;850;-65
2021/05/19 04:34:38;;;;;;;;;;;22.50;39.80;;;;;;1514045;77;781;-64
2021/05/19 04:36:40;;;;;;;;;;;22.50;39.90;;;;;;1515429;77;1091;-66
2021/05/19 04:38:42;;;;;;;;;;;22.50;39.90;;;;;;1513276;77;662;-67
2021/05/19 04:40:46;;;;;;;;;;;22.40;39.80;;;;;;1556473;75;824;-65
2021/05/19 04:42:48;;;;;;;;;;;22.50;40.00;;;;;;1546565;75;777;-67
2021/05/19 04:44:50;;;;;;;;;;;22.50;39.90;;;;;;1537092;76;855;-67
2021/05/19 04:46:52;;;;;;;;;;;22.50;40.00;;;;;;1550302;75;1153;-67
2021/05/19 04:48:58;;;;;;;;;;;22.40;39.60;;;;;;1523019;76;1981;-66
2021/05/19 04:50:57;;;;;;;;;;;22.50;39.90;;;;;;1537406;75;1136;-65
2021/05/19 04:52:59;;;;;;;;;;;22.50;39.90;;;;;;1553330;75;819;-67
2021/05/19 04:55:04;;;;;;;;;;;22.50;39.90;;;;;;1534824;75;856;-66
2021/05/19 04:57:05;;;;;;;;;;;22.50;40.00;;;;;;1538584;75;1674;-68
2021/05/19 04:59:07;;;;;;;;;;;22.50;40.00;;;;;;1534601;75;725;-66
2021/05/19 05:01:09;;;;;;;;;;;22.40;39.80;;;;;;1535424;75;792;-63
2021/05/19 05:03:11;;;;;;;;;;;22.50;40.00;;;;;;1534810;75;701;-67
2021/05/19 05:05:13;;;;;;;;;;;22.50;39.90;;;;;;1542066;75;627;-68
2021/05/19 05:07:15;;;;;;;;;;;22.50;39.90;;;;;;1544455;75;1212;-66
2021/05/19 05:09:17;;;;;;;;;;;22.50;39.80;;;;;;1514377;76;1942;-65
2021/05/19 05:11:19;;;;;;;;;;;22.50;39.80;;;;;;1514035;76;781;-66
2021/05/19 05:13:22;;;;;;;;;;;22.50;39.70;;;;;;1511347;76;754;-65
2021/05/19 05:15:24;;;;;;;;;;;22.50;39.80;;;;;;1513741;76;901;-66
2021/05/19 05:17:26;;;;;;;;;;;22.50;39.90;;;;;;1532899;75;1173;-67
2021/05/19 05:19:28;;;;;;;;;;;22.50;40.10;;;;;;1534770;75;768;-67
2021/05/19 05:21:30;;;;;;;;;;;22.50;40.20;;;;;;1536377;75;715;-67
2021/05/19 05:23:32;;;;;;;;;;;22.40;40.20;;;;;;1537519;75;771;-66
2021/05/19 05:25:34;;;;;;;;;;;22.50;40.00;;;;;;1532263;75;719;-67
2021/05/19 05:27:35;;;;;;;;;;;22.50;40.00;;;;;;1553137;75;1139;-66
2021/05/19 05:29:39;;;;;;;;;;;22.40;39.90;;;;;;1551706;75;1947;-67
2021/05/19 05:31:41;;;;;;;;;;;22.40;39.70;;;;;;1549849;75;1680;-66
2021/05/19 05:33:43;;;;;;;;;;;22.50;40.00;;;;;;1558988;75;786;-65
2021/05/19 05:35:45;;;;;;;;;;;22.50;40.20;;;;;;1546125;75;746;-68
2021/05/19 05:37:46;;;;;;;;;;;22.40;40.20;;;;;;1552689;75;1170;-71
2021/05/19 05:39:48;;;;;;;;;;;22.40;40.20;;;;;;1520979;76;786;-68
2021/05/19 05:41:50;;;;;;;;;;;22.40;40.40;;;;;;1517851;76;705;-67
2021/05/19 05:43:52;;;;;;;;;;;22.40;40.50;;;;;;1537535;76;817;-68
2021/05/19 05:45:54;;;;;;;;;;;22.40;40.50;;;;;;1551936;74;711;-68
2021/05/19 05:47:56;;;;;;;;;;;22.40;40.20;;;;;;1534139;76;1141;-69
2021/05/19 05:49:58;;;;;;;;;;;22.40;40.30;;;;;;1524857;76;1938;-72
2021/05/19 05:52:00;;;;;;;;;;;22.50;40.20;;;;;;1550101;75;729;-72
2021/05/19 05:54:02;;;;;;;;;;;22.50;40.50;;;;;;1545851;76;735;-69
2021/05/19 05:56:04;;;;;;;;;;;22.60;40.50;;;;;;1523655;75;711;-68
2021/05/19 05:58:06;;;;;;;;;;;22.60;40.60;;;;;;1527858;76;1131;-69
2021/05/19 06:00:09;;;;;;;;;;;22.60;40.60;;;;;;1531275;76;744;-67
2021/05/19 06:02:11;;;;;;;;;;;22.50;40.40;;;;;;1532028;76;753;-70
2021/05/19 06:04:13;;;;;;;;;;;22.50;40.60;;;;;;1539771;76;778;-70
2021/05/19 06:06:15;;;;;;;;;;;22.30;40.60;;;;;;1530253;76;745;-64
2021/05/19 06:08:16;;;;;;;;;;;22.40;40.80;;;;;;1524635;76;1138;-68
2021/05/19 06:10:18;;;;;;;;;;;22.30;40.90;;;;;;1535948;76;1919;-69
2021/05/19 06:12:20;;;;;;;;;;;22.30;41.10;;;;;;1531766;76;818;-68
2021/05/19 06:14:22;;;;;;;;;;;22.30;41.10;;;;;;1534124;76;788;-68
2021/05/19 06:16:24;;;;;;;;;;;22.30;40.80;;;;;;1533211;76;1130;-67
2021/05/19 06:18:26;;;;;;;;;;;22.40;40.50;;;;;;1533134;76;675;-69
2021/05/19 06:20:28;;;;;;;;;;;22.40;40.30;;;;;;1533877;76;803;-67
2021/05/19 06:22:30;;;;;;;;;;;22.50;40.40;;;;;;1536522;76;830;-69
2021/05/19 06:24:32;;;;;;;;;;;22.40;40.30;;;;;;1545803;76;1040;-69
2021/05/19 06:26:34;;;;;;;;;;;22.40;40.30;;;;;;1547558;76;1203;-70
2021/05/19 06:28:36;;;;;;;;;;;22.40;40.10;;;;;;1557775;76;749;-62
2021/05/19 06:30:38;;;;;;;;;;;22.40;40.40;;;;;;1527647;76;1924;-61
2021/05/19 06:32:40;;;;;;;;;;;22.40;39.40;;;;;;1549257;76;783;-62
2021/05/19 06:34:41;;;;;;;;;;;22.40;39.20;;;;;;1553444;76;740;-64
2021/05/19 06:36:47;;;;;;;;;;;22.30;39.10;;;;;;1529934;76;1145;-61
2021/05/19 06:38:49;;;;;;;;;;;22.30;39.00;;;;;;1535316;76;811;-61
2021/05/19 06:40:52;;;;;;;;;;;22.30;39.10;;;;;;1537856;76;800;-63
2021/05/19 06:42:54;;;;;;;;;;;22.30;39.20;;;;;;1535543;76;884;-62
2021/05/19 06:44:55;;;;;;;;;;;22.30;38.90;;;;;;1531390;76;793;-62
2021/05/19 06:46:57;;;;;;;;;;;22.30;38.80;;;;;;1528467;76;1129;-63
2021/05/19 06:49:03;;;;;;;;;;;22.20;38.60;;;;;;1532987;76;732;-62
2021/05/19 06:51:03;;;;;;;;;;;22.20;38.60;;;;;;1527724;76;1929;-62
2021/05/19 06:53:05;;;;;;;;;;;22.10;38.60;;;;;;1533555;76;773;-62
2021/05/19 06:55:07;;;;;;;;;;;22.10;38.70;;;;;;1528894;76;814;-63
2021/05/19 06:57:09;;;;;;;;;;;22.10;38.70;;;;;;1523323;76;1162;-63
2021/05/19 06:59:12;;;;;;;;;;;22.00;38.60;;;;;;1537384;76;802;-61
2021/05/19 07:01:14;;;;;;;;;;;22.10;38.50;;;;;;1523942;76;1671;-64
2021/05/19 07:03:16;;;;;;;;;;;22.00;38.60;;;;;;1536252;76;837;-62
2021/05/19 07:05:18;;;;;;;;;;;22.00;37.70;;;;;;1534163;76;829;-62
2021/05/19 07:07:20;;;;;;;;;;;22.00;38.30;;;;;;1526032;76;1203;-61
2021/05/19 07:09:25;;;;;;;;;;;22.00;38.40;;;;;;1524040;76;776;-62
2021/05/19 07:11:25;;;;;;;;;;;22.00;38.40;;;;;;1531215;76;1941;-63
2021/05/19 07:13:28;;;;;;;;;;;21.90;38.50;;;;;;1533788;76;777;-63
2021/05/19 07:15:36;;;;;;;;;;;21.80;38.40;;;;;;1533164;76;774;-62
2021/05/19 07:17:33;;;;;;;;;;;21.90;38.40;;;;;;1528598;76;1646;-62
2021/05/19 07:19:35;;;;;;;;;;;21.80;38.30;;;;;;1530517;76;774;-62
2021/05/19 07:21:37;;;;;;;;;;;21.80;38.40;;;;;;1531157;76;782;-61
2021/05/19 07:23:39;;;;;;;;;;;21.80;38.10;;;;;;1527544;76;879;-62
2021/05/19 07:25:41;;;;;;;;;;;21.90;38.50;;;;;;1531525;76;779;-61
2021/05/19 07:27:43;;;;;;;;;;;21.80;38.40;;;;;;1529986;76;1170;-63
2021/05/19 07:29:45;;;;;;;;;;;21.80;38.40;;;;;;1528861;76;1952;-62
2021/05/19 07:31:47;;;;;;;;;;;21.80;38.40;;;;;;1525842;76;916;-59
2021/05/19 07:33:49;;;;;;;;;;;21.80;38.20;;;;;;1524541;76;682;-62
2021/05/19 07:35:51;;;;;;;;;;;21.80;38.40;;;;;;1531590;76;680;-62
2021/05/19 07:37:53;;;;;;;;;;;21.80;38.30;;;;;;1522853;76;1109;-61
2021/05/19 07:39:55;;;;;;;;;;;21.70;38.20;;;;;;1524644;76;727;-61
2021/05/19 07:41:57;;;;;;;;;;;21.60;38.10;;;;;;1521055;76;795;-62
2021/05/19 07:43:59;;;;;;;;;;;21.60;38.10;;;;;;1516276;76;745;-61
2021/05/19 07:46:01;;;;;;;;;;;21.60;38.00;;;;;;1512712;76;745;-60
2021/05/19 07:48:03;;;;;;;;;;;21.60;37.50;;;;;;1525808;76;1144;-62
2021/05/19 07:50:05;;;;;;;;;;;21.60;37.20;;;;;;1521987;76;1946;-61
2021/05/19 07:52:07;;;;;;;;;;;21.60;37.20;;;;;;1522869;76;783;-61
2021/05/19 07:54:13;;;;;;;;;;;21.60;37.20;;;;;;1520538;76;711;-62
2021/05/19 07:56:20;;;;;;;;;;;21.60;37.10;;;;;;1517826;76;1452;-63
2021/05/19 07:58:25;;;;;;;;;;;21.60;37.90;;;;;;1514646;76;1754;-63
2021/05/19 08:02:37;;;;;;;;;;;21.60;37.80;;;;;;1515026;76;869;-63
2021/05/19 08:04:39;;;;;;;;;;;21.60;37.80;;;;;;1516898;76;818;-61
2021/05/19 08:06:41;;;;;;;;;;;21.60;37.90;;;;;;1517377;76;1168;-61
2021/05/19 08:08:43;;;;;;;;;;;21.60;38.00;;;;;;1523815;76;788;-65
2021/05/19 08:10:45;;;;;;;;;;;21.60;38.00;;;;;;1520790;76;1939;-67
2021/05/19 08:12:47;;;;;;;;;;;21.50;38.30;;;;;;1522425;76;748;-66
2021/05/19 08:14:49;;;;;;;;;;;21.50;38.60;;;;;;1515482;76;823;-66
2021/05/19 08:18:55;;;;;;;;;;;21.90;38.50;;;;;;1537834;75;632;-56
2021/05/19 08:20:57;;;;;;;;;;;21.90;38.30;;;;;;1540910;75;1183;-53
2021/05/19 08:22:59;;;;;;;;;;;22.00;38.10;;;;;;1535818;75;743;-58
2021/05/19 08:25:01;;;;;;;;;;;22.00;38.10;;;;;;1548840;75;748;-56
2021/05/19 08:27:03;;;;;;;;;;;22.10;38.20;;;;;;1537519;75;785;-54
2021/05/19 08:29:05;;;;;;;;;;;22.10;38.20;;;;;;1535260;75;712;-58
2021/05/19 08:31:08;;;;;;;;;;;22.10;38.20;;;;;;1538960;75;1946;-58
2021/05/19 08:33:10;;;;;;;;;;;22.20;38.60;;;;;;1540659;75;777;-55
2021/05/19 08:35:13;;;;;;;;;;;22.20;38.50;;;;;;1538042;75;713;-54
2021/05/19 08:37:15;;;;;;;;;;;22.10;38.50;;;;;;1546811;75;734;-53
2021/05/19 08:39:17;;;;;;;;;;;22.10;38.70;;;;;;1540259;75;659;-56
2021/05/19 08:41:19;;;;;;;;;;;22.10;38.90;;;;;;1549439;75;1129;-56
2021/05/19 08:43:20;;;;;;;;;;;22.00;39.00;;;;;;1539403;75;785;-55
2021/05/19 08:45:22;;;;;;;;;;;21.90;39.20;;;;;;1540480;75;786;-56
2021/05/19 08:47:24;;;;;;;;;;;22.00;39.40;;;;;;1549124;75;704;-56
2021/05/19 08:49:27;;;;;;;;;;;21.90;39.60;;;;;;1547348;75;758;-56
2021/05/19 08:51:29;;;;;;;;;;;22.00;39.80;;;;;;1547603;75;1943;-56
2021/05/19 08:53:30;;;;;;;;;;;22.00;39.70;;;;;;1537900;75;812;-56
2021/05/19 08:55:32;;;;;;;;;;;22.00;39.70;;;;;;1547242;75;818;-52
2021/05/19 08:57:36;;;;;;;;;;;22.10;39.90;;;;;;1548817;75;738;-56
2021/05/19 08:59:38;;;;;;;;;;;22.00;39.80;;;;;;1541080;75;1967;-55
2021/05/19 09:01:44;;;;;;;;;;;22.00;39.90;;;;;;1530704;76;774;-54
2021/05/19 09:03:46;;;;;;;;;;;22.10;40.00;;;;;;1566285;75;693;-54
2021/05/19 09:05:48;;;;;;;;;;;22.00;40.00;;;;;;1552655;75;712;-56
2021/05/19 09:07:51;;;;;;;;;;;22.00;40.10;;;;;;1549237;74;655;-56
2021/05/19 09:09:53;;;;;;;;;;;22.00;40.10;;;;;;1577372;74;1151;-56
2021/05/19 09:11:55;;;;;;;;;;;21.90;40.20;;;;;;1550696;75;1951;-56
2021/05/19 09:13:57;;;;;;;;;;;22.00;40.20;;;;;;1561106;75;783;-56
2021/05/19 09:16:00;;;;;;;;;;;22.00;40.30;;;;;;1550347;74;714;-56
2021/05/19 09:18:02;;;;;;;;;;;22.00;40.40;;;;;;1554767;74;809;-57
2021/05/19 09:20:11;;;;;;;;;;;22.00;40.40;;;;;;1553373;75;1118;-56
2021/05/19 09:22:16;;;;;;;;;;;21.90;40.50;;;;;;1549960;74;797;-54
2021/05/19 09:24:31;;;;;;;;;;;21.90;40.50;;;;;;1546349;74;782;-57
2021/05/19 09:26:33;;;;;;;;;;;22.00;40.60;;;;;;1549773;74;713;-56
2021/05/19 09:28:35;;;;;;;;;;;22.00;40.60;;;;;;1544674;74;809;-54
2021/05/19 09:30:40;;;;;;;;;;;22.00;40.60;;;;;;1559171;75;1950;-56
2021/05/19 09:32:46;;;;;;;;;;;21.90;40.70;;;;;;1551168;74;763;-57
2021/05/19 09:34:46;;;;;;;;;;;22.00;40.70;;;;;;1546553;74;1569;-56
2021/05/19 09:36:48;;;;;;;;;;;22.00;40.70;;;;;;1554488;74;688;-57
2021/05/19 09:38:51;;;;;;;;;;;22.00;40.70;;;;;;1557065;74;771;-56
2021/05/19 09:40:57;;;;;;;;;;;22.00;40.70;;;;;;1551872;74;1139;-56
2021/05/19 09:43:00;;;;;;;;;;;22.00;40.70;;;;;;1541023;75;1499;-57
2021/05/19 09:45:19;;;;;;;;;;;22.00;40.70;;;;;;1558639;74;814;-54
2021/05/19 09:47:37;;;;;;;;;;;22.00;40.70;;;;;;1540889;75;690;-56
2021/05/19 09:49:39;;;;;;;;;;;22.00;40.70;;;;;;1554296;74;1344;-56
2021/05/19 09:51:42;;;;;;;;;;;22.00;40.70;;;;;;1553923;74;1929;-55
2021/05/19 09:53:44;;;;;;;;;;;22.10;40.70;;;;;;1577673;73;953;-57
2021/05/19 09:55:54;;;;;;;;;;;22.10;40.70;;;;;;1559818;74;726;-57
2021/05/19 09:57:56;;;;;;;;;;;22.10;40.70;;;;;;1547971;74;736;-55
2021/05/19 09:59:59;;;;;;;;;;;22.10;40.50;;;;;;1552957;74;1093;-56
2021/05/19 10:02:01;;;;;;;;;;;22.30;40.60;;;;;;1544691;74;726;-56
2021/05/19 10:04:04;;;;;;;;;;;22.30;40.60;;;;;;1546235;74;748;-57
2021/05/19 10:08:09;;;;;;;;;;;22.30;40.50;;;;;;1548759;74;702;-55
2021/05/19 10:10:11;;;;;;;;;;;22.30;40.50;;;;;;1542900;74;1083;-53
2021/05/19 10:12:14;;;;;;;;;;;22.30;40.40;;;;;;1553924;74;1932;-57
2021/05/19 10:14:15;;;;;;;;;;;22.30;40.50;;;;;;1550324;75;1144;-54
2021/05/19 10:16:19;;;;;;;;;;;22.30;40.50;;;;;;1549578;74;745;-56
2021/05/19 10:18:21;;;;;;;;;;;22.30;40.40;;;;;;1555127;74;896;-57
2021/05/19 10:20:24;;;;;;;;;;;22.40;40.50;;;;;;1549199;74;1197;-56
2021/05/19 10:22:28;;;;;;;;;;;22.40;40.40;;;;;;1549152;74;748;-55
2021/05/19 10:24:46;;;;;;;;;;;22.40;40.30;;;;;;1548485;74;716;-57
2021/05/19 10:27:04;;;;;;;;;;;22.40;40.20;;;;;;1552165;74;723;-57
2021/05/19 10:29:06;;;;;;;;;;;22.40;40.20;;;;;;1552436;74;708;-55
2021/05/19 10:31:19;;;;;;;;;;;22.40;40.20;;;;;;1545027;74;1954;-56
2021/05/19 10:33:31;;;;;;;;;;;22.50;40.30;;;;;;1538096;74;1104;-55
2021/05/19 10:35:35;;;;;;;;;;;22.50;40.30;;;;;;1552804;74;705;-56
2021/05/19 10:37:38;;;;;;;;;;;22.50;40.20;;;;;;1550860;74;1140;-53
2021/05/19 10:39:40;;;;;;;;;;;22.50;40.20;;;;;;1541614;74;1134;-56
2021/05/19 10:41:47;;;;;;;;;;;22.50;40.10;;;;;;1548767;74;777;-54
2021/05/19 10:43:50;;;;;;;;;;;22.60;40.00;;;;;;1543467;74;1472;-56
2021/05/19 10:46:00;;;;;;;;;;;22.60;40.00;;;;;;1549746;74;1090;-53
2021/05/19 10:48:02;;;;;;;;;;;22.60;40.00;;;;;;1540983;74;1651;-55
2021/05/19 10:50:10;;;;;;;;;;;22.60;40.00;;;;;;1577670;74;1077;-56
2021/05/19 10:59:01;;;;;;;;;;;22.70;39.60;;;;;;1551763;75;1823;-57
2021/05/19 11:01:06;;;;;;;;;;;22.80;39.50;;;;;;1543624;74;1127;-57
2021/05/19 11:03:13;;;;;;;;;;;22.80;39.40;;;;;;1557654;74;1714;-56
2021/05/19 11:05:15;;;;;;;;;;;22.80;39.30;;;;;;1551745;74;715;-53
2021/05/19 11:07:17;;;;;;;;;;;22.90;39.20;;;;;;1547062;74;771;-57
2021/05/19 11:09:23;;;;;;;;;;;22.90;39.20;;;;;;1547016;74;727;-56
2021/05/19 11:11:30;;;;;;;;;;;22.90;39.20;;;;;;1559049;74;1922;-56
2021/05/19 11:13:35;;;;;;;;;;;23.00;39.00;;;;;;1552057;73;1128;-57
2021/05/19 11:15:40;;;;;;;;;;;23.00;38.90;;;;;;1590088;74;1593;-54
2021/05/19 11:19:45;;;;;;;;;;;23.00;38.90;;;;;;1546526;74;1134;-54
2021/05/19 11:21:47;;;;;;;;;;;23.00;38.80;;;;;;1547657;74;723;-52
2021/05/19 11:24:10;;;;;;;;;;;23.00;38.90;;;;;;1582979;73;742;-56
2021/05/19 11:26:12;;;;;;;;;;;23.00;38.90;;;;;;1551311;74;1611;-55
2021/05/19 11:28:14;;;;;;;;;;;23.00;38.90;;;;;;1544260;74;843;-52
2021/05/19 11:30:24;;;;;;;;;;;23.00;38.90;;;;;;1538647;74;1130;-54
2021/05/19 11:32:25;;;;;;;;;;;23.00;38.90;;;;;;1548883;73;1918;-56
2021/05/19 11:34:27;;;;;;;;;;;23.00;38.90;;;;;;1548314;74;1989;-57
2021/05/19 11:36:44;;;;;;;;;;;23.00;38.90;;;;;;1552312;74;726;-56
2021/05/19 11:38:46;;;;;;;;;;;23.00;38.90;;;;;;1549115;74;949;-55
2021/05/19 11:40:51;;;;;;;;;;;22.90;39.00;;;;;;1547887;74;1132;-55
2021/05/19 11:42:54;;;;;;;;;;;22.90;39.10;;;;;;1550240;74;710;-54
2021/05/19 11:45:03;;;;;;;;;;;22.90;39.20;;;;;;1553711;74;808;-57
2021/05/19 11:47:05;;;;;;;;;;;22.90;39.20;;;;;;1541514;74;1281;-56
2021/05/19 11:49:11;;;;;;;;;;;22.90;39.20;;;;;;1546939;74;924;-57
2021/05/19 11:51:20;;;;;;;;;;;22.90;39.30;;;;;;1552098;74;1687;-54
2021/05/19 11:53:22;;;;;;;;;;;22.80;39.20;;;;;;1545055;74;930;-57
2021/05/19 11:55:26;;;;;;;;;;;22.90;39.40;;;;;;1546813;74;757;-57
2021/05/19 11:57:27;;;;;;;;;;;22.90;39.50;;;;;;1550678;74;865;-56
2021/05/19 11:59:33;;;;;;;;;;;22.70;39.50;;;;;;1577578;74;998;-54
2021/05/19 12:01:33;;;;;;;;;;;22.80;39.50;;;;;;1540948;74;1973;-57
2021/05/19 12:03:35;;;;;;;;;;;22.80;39.60;;;;;;1553546;74;750;-57
2021/05/19 12:05:42;;;;;;;;;;;22.80;39.50;;;;;;1552730;74;761;-57
2021/05/19 12:07:43;;;;;;;;;;;22.80;39.60;;;;;;1559064;74;1782;-58
2021/05/19 12:09:45;;;;;;;;;;;22.80;39.50;;;;;;1546518;74;1138;-57
2021/05/19 12:11:47;;;;;;;;;;;22.70;39.50;;;;;;1553421;74;1920;-57
2021/05/19 12:13:58;;;;;;;;;;;22.80;39.50;;;;;;1547509;74;795;-57
2021/05/19 12:16:00;;;;;;;;;;;22.70;39.50;;;;;;1551769;75;744;-58
2021/05/19 12:18:03;;;;;;;;;;;22.80;39.50;;;;;;1543479;74;769;-55
2021/05/19 12:20:06;;;;;;;;;;;22.80;39.50;;;;;;1552226;74;1138;-55
2021/05/19 12:22:18;;;;;;;;;;;22.80;39.60;;;;;;1542537;75;674;-57
2021/05/19 12:24:28;;;;;;;;;;;22.80;39.50;;;;;;1549204;74;714;-57
2021/05/19 12:26:29;;;;;;;;;;;22.80;39.50;;;;;;1552695;73;985;-54
2021/05/19 12:28:31;;;;;;;;;;;22.80;39.40;;;;;;1544234;74;735;-56
2021/05/19 12:30:46;;;;;;;;;;;22.90;39.60;;;;;;1587305;74;1159;-57
2021/05/19 12:32:49;;;;;;;;;;;22.80;39.40;;;;;;1544647;75;1940;-54